Alpha, Ohio
Current Conditions -  °F | °C
As of 1:58 PM on Saturday 20 Dec 2014 (Local Time) from KFFO Reporting Station
Overcast Overcast  
Wind Chill: 31°   Ceiling: 1900
Heat Index: 31°   Visibility: 10mi
Dew Point: 23°   Wind: 2mph
Humidity: 73%   Direction: 320°NW
Pressure: 30.25"   Gusts: NA
Location:  39.71°N, 84.02°W
Report Text: KFFO 201858Z 32002KT 10SM OVC019 M01/M05 A3025 RMK AO2A SLP256 T10071050
Loading
Personal Weather Stations






























Interactive Weather Map New forecast layout! Learn more

10-Day Weather Forecast

Advertisements
Track Severe Weather on mobile